sensor_id;sensor_type;location;lat;lon;timestamp;pressure;altitude;pressure_sealevel;temperature;humidity
25430;BME280;13360;48.152;-1.788;2023-07-20T00:01:28;101731.19;;;18.86;100.00
25430;BME280;13360;48.152;-1.788;2023-07-20T00:03:53;101735.16;;;18.85;100.00
25430;BME280;13360;48.152;-1.788;2023-07-20T00:06:21;101757.53;;;18.85;100.00
25430;BME280;13360;48.152;-1.788;2023-07-20T00:08:47;101761.50;;;18.84;100.00
25430;BME280;13360;48.152;-1.788;2023-07-20T00:11:13;101762.31;;;18.85;100.00
25430;BME280;13360;48.152;-1.788;2023-07-20T00:13:38;101762.81;;;18.87;100.00
25430;BME280;13360;48.152;-1.788;2023-07-20T00:16:04;101774.34;;;18.85;100.00
25430;BME280;13360;48.152;-1.788;2023-07-20T00:18:29;101782.75;;;18.85;100.00
25430;BME280;13360;48.152;-1.788;2023-07-20T00:20:54;101786.03;;;18.87;100.00
25430;BME280;13360;48.152;-1.788;2023-07-20T00:23:19;101798.72;;;18.85;100.00
25430;BME280;13360;48.152;-1.788;2023-07-20T00:25:47;101799.03;;;18.83;100.00
25430;BME280;13360;48.152;-1.788;2023-07-20T00:28:12;101812.69;;;18.85;100.00
25430;BME280;13360;48.152;-1.788;2023-07-20T00:30:38;101815.00;;;18.83;100.00
25430;BME280;13360;48.152;-1.788;2023-07-20T00:33:03;101823.25;;;18.79;100.00
25430;BME280;13360;48.152;-1.788;2023-07-20T00:35:28;101852.38;;;18.78;100.00
25430;BME280;13360;48.152;-1.788;2023-07-20T00:37:53;101863.06;;;18.76;100.00
25430;BME280;13360;48.152;-1.788;2023-07-20T00:40:18;101871.97;;;18.78;100.00
25430;BME280;13360;48.152;-1.788;2023-07-20T00:42:44;101908.69;;;18.77;100.00
25430;BME280;13360;48.152;-1.788;2023-07-20T00:45:10;101914.28;;;18.77;100.00
25430;BME280;13360;48.152;-1.788;2023-07-20T00:47:35;101924.66;;;18.76;100.00
25430;BME280;13360;48.152;-1.788;2023-07-20T00:50:01;101924.16;;;18.74;100.00
25430;BME280;13360;48.152;-1.788;2023-07-20T00:52:27;101928.91;;;18.74;100.00
25430;BME280;13360;48.152;-1.788;2023-07-20T00:54:52;101937.63;;;18.72;100.00
25430;BME280;13360;48.152;-1.788;2023-07-20T00:57:21;101931.19;;;18.72;100.00
25430;BME280;13360;48.152;-1.788;2023-07-20T00:59:46;101942.72;;;18.70;100.00
25430;BME280;13360;48.152;-1.788;2023-07-20T01:02:11;101938.25;;;18.69;100.00
25430;BME280;13360;48.152;-1.788;2023-07-20T01:04:36;101934.97;;;18.67;100.00
25430;BME280;13360;48.152;-1.788;2023-07-20T01:07:17;101932.16;;;18.67;100.00
25430;BME280;13360;48.152;-1.788;2023-07-20T01:09:45;101934.13;;;18.67;100.00
25430;BME280;13360;48.152;-1.788;2023-07-20T01:12:18;101937.75;;;18.67;100.00
25430;BME280;13360;48.152;-1.788;2023-07-20T01:14:48;101943.47;;;18.62;100.00
25430;BME280;13360;48.152;-1.788;2023-07-20T01:17:13;101951.38;;;18.60;100.00
25430;BME280;13360;48.152;-1.788;2023-07-20T01:19:39;101950.88;;;18.58;100.00
25430;BME280;13360;48.152;-1.788;2023-07-20T01:32:16;101985.19;;;18.50;100.00
25430;BME280;13360;48.152;-1.788;2023-07-20T01:34:42;101983.06;;;18.47;100.00
25430;BME280;13360;48.152;-1.788;2023-07-20T01:37:08;101993.41;;;18.46;100.00
25430;BME280;13360;48.152;-1.788;2023-07-20T01:39:34;101986.16;;;18.45;100.00
25430;BME280;13360;48.152;-1.788;2023-07-20T01:42:00;101987.66;;;18.43;100.00
25430;BME280;13360;48.152;-1.788;2023-07-20T01:44:25;101988.78;;;18.42;100.00
25430;BME280;13360;48.152;-1.788;2023-07-20T01:46:50;101986.97;;;18.37;100.00
25430;BME280;13360;48.152;-1.788;2023-07-20T01:49:16;101990.91;;;18.36;100.00
25430;BME280;13360;48.152;-1.788;2023-07-20T01:51:41;101997.97;;;18.34;100.00
25430;BME280;13360;48.152;-1.788;2023-07-20T01:54:06;102001.03;;;18.32;100.00
25430;BME280;13360;48.152;-1.788;2023-07-20T01:56:31;101994.13;;;18.29;100.00
25430;BME280;13360;48.152;-1.788;2023-07-20T01:58:56;101999.22;;;18.27;100.00
25430;BME280;13360;48.152;-1.788;2023-07-20T02:01:22;102005.13;;;18.26;100.00
25430;BME280;13360;48.152;-1.788;2023-07-20T02:03:47;102011.53;;;18.26;100.00
25430;BME280;13360;48.152;-1.788;2023-07-20T02:06:12;102007.94;;;18.26;100.00
25430;BME280;13360;48.152;-1.788;2023-07-20T02:08:37;102015.50;;;18.25;100.00
25430;BME280;13360;48.152;-1.788;2023-07-20T02:11:03;102003.78;;;18.23;100.00
25430;BME280;13360;48.152;-1.788;2023-07-20T02:13:29;101985.38;;;18.22;100.00
25430;BME280;13360;48.152;-1.788;2023-07-20T02:15:54;101979.28;;;18.20;100.00
25430;BME280;13360;48.152;-1.788;2023-07-20T02:18:20;101979.91;;;18.17;100.00
25430;BME280;13360;48.152;-1.788;2023-07-20T02:20:45;101974.63;;;18.16;100.00
25430;BME280;13360;48.152;-1.788;2023-07-20T02:23:10;101975.78;;;18.15;100.00
25430;BME280;13360;48.152;-1.788;2023-07-20T02:25:36;101975.28;;;18.13;100.00
25430;BME280;13360;48.152;-1.788;2023-07-20T02:28:03;101972.78;;;18.11;100.00
25430;BME280;13360;48.152;-1.788;2023-07-20T02:30:29;101972.25;;;18.09;100.00
25430;BME280;13360;48.152;-1.788;2023-07-20T02:32:54;101964.53;;;18.06;100.00
25430;BME280;13360;48.152;-1.788;2023-07-20T02:35:19;101966.81;;;18.04;100.00
25430;BME280;13360;48.152;-1.788;2023-07-20T02:37:44;101964.00;;;18.04;100.00
25430;BME280;13360;48.152;-1.788;2023-07-20T02:40:10;101961.22;;;18.04;100.00
25430;BME280;13360;48.152;-1.788;2023-07-20T02:42:36;101955.94;;;18.03;100.00
25430;BME280;13360;48.152;-1.788;2023-07-20T02:45:04;101960.72;;;18.02;100.00
25430;BME280;13360;48.152;-1.788;2023-07-20T02:47:30;101953.47;;;18.01;100.00
25430;BME280;13360;48.152;-1.788;2023-07-20T02:49:56;101952.13;;;17.98;100.00
25430;BME280;13360;48.152;-1.788;2023-07-20T02:52:21;101948.34;;;17.94;100.00
25430;BME280;13360;48.152;-1.788;2023-07-20T02:54:46;101953.09;;;17.94;100.00
25430;BME280;13360;48.152;-1.788;2023-07-20T02:57:12;101947.50;;;17.94;100.00
25430;BME280;13360;48.152;-1.788;2023-07-20T02:59:37;101950.31;;;17.94;100.00
25430;BME280;13360;48.152;-1.788;2023-07-20T03:02:03;101943.91;;;17.93;100.00
25430;BME280;13360;48.152;-1.788;2023-07-20T03:04:28;101943.38;;;17.91;100.00
25430;BME280;13360;48.152;-1.788;2023-07-20T03:06:53;101942.03;;;17.89;100.00
25430;BME280;13360;48.152;-1.788;2023-07-20T03:09:19;101942.03;;;17.89;100.00
25430;BME280;13360;48.152;-1.788;2023-07-20T03:11:44;101941.72;;;17.90;100.00
25430;BME280;13360;48.152;-1.788;2023-07-20T03:14:09;101938.91;;;17.90;100.00
25430;BME280;13360;48.152;-1.788;2023-07-20T03:16:35;101934.78;;;17.88;100.00
25430;BME280;13360;48.152;-1.788;2023-07-20T03:19:01;101930.84;;;17.89;100.00
25430;BME280;13360;48.152;-1.788;2023-07-20T03:21:26;101933.63;;;17.89;100.00
25430;BME280;13360;48.152;-1.788;2023-07-20T03:23:51;101928.38;;;17.87;100.00
25430;BME280;13360;48.152;-1.788;2023-07-20T03:26:16;101927.88;;;17.85;100.00
25430;BME280;13360;48.152;-1.788;2023-07-20T03:28:42;101929.31;;;17.83;100.00
25430;BME280;13360;48.152;-1.788;2023-07-20T03:31:07;101931.28;;;17.82;100.00
25430;BME280;13360;48.152;-1.788;2023-07-20T03:33:32;101942.47;;;17.82;100.00
25430;BME280;13360;48.152;-1.788;2023-07-20T03:35:58;101943.31;;;17.83;100.00
25430;BME280;13360;48.152;-1.788;2023-07-20T03:38:24;101955.31;;;17.83;100.00
25430;BME280;13360;48.152;-1.788;2023-07-20T03:40:59;101950.53;;;17.84;100.00
25430;BME280;13360;48.152;-1.788;2023-07-20T03:43:25;101933.25;;;17.82;100.00
25430;BME280;13360;48.152;-1.788;2023-07-20T03:45:51;101932.75;;;17.80;100.00
25430;BME280;13360;48.152;-1.788;2023-07-20T03:48:17;101933.91;;;17.79;100.00
25430;BME280;13360;48.152;-1.788;2023-07-20T03:50:46;101927.81;;;17.77;100.00
25430;BME280;13360;48.152;-1.788;2023-07-20T03:53:12;101888.19;;;17.75;100.00
25430;BME280;13360;48.152;-1.788;2023-07-20T03:55:37;101855.63;;;17.70;100.00
25430;BME280;13360;48.152;-1.788;2023-07-20T03:58:02;101839.69;;;17.71;100.00
25430;BME280;13360;48.152;-1.788;2023-07-20T04:00:28;101803.97;;;17.67;100.00
25430;BME280;13360;48.152;-1.788;2023-07-20T04:02:53;101803.63;;;17.69;100.00
25430;BME280;13360;48.152;-1.788;2023-07-20T04:05:19;101795.03;;;17.65;100.00
25430;BME280;13360;48.152;-1.788;2023-07-20T04:07:44;101791.25;;;17.61;100.00
25430;BME280;13360;48.152;-1.788;2023-07-20T04:10:09;101781.34;;;17.55;100.00
25430;BME280;13360;48.152;-1.788;2023-07-20T04:12:35;101773.28;;;17.54;100.00
25430;BME280;13360;48.152;-1.788;2023-07-20T04:15:00;101770.81;;;17.52;100.00
25430;BME280;13360;48.152;-1.788;2023-07-20T04:17:26;101770.00;;;17.52;100.00
25430;BME280;13360;48.152;-1.788;2023-07-20T04:19:51;101761.63;;;17.52;100.00
25430;BME280;13360;48.152;-1.788;2023-07-20T04:22:16;101755.31;;;17.46;100.00
25430;BME280;13360;48.152;-1.788;2023-07-20T04:24:42;101767.13;;;17.43;100.00
25430;BME280;13360;48.152;-1.788;2023-07-20T04:27:07;101771.22;;;17.37;100.00
25430;BME280;13360;48.152;-1.788;2023-07-20T04:29:33;101781.88;;;17.35;100.00
25430;BME280;13360;48.152;-1.788;2023-07-20T04:31:58;101787.78;;;17.33;100.00
25430;BME280;13360;48.152;-1.788;2023-07-20T04:34:23;101801.56;;;17.30;100.00
25430;BME280;13360;48.152;-1.788;2023-07-20T04:36:48;101813.88;;;17.29;100.00
25430;BME280;13360;48.152;-1.788;2023-07-20T04:39:13;101828.94;;;17.28;100.00
25430;BME280;13360;48.152;-1.788;2023-07-20T04:41:39;101830.63;;;17.29;100.00
25430;BME280;13360;48.152;-1.788;2023-07-20T04:44:04;101838.44;;;17.27;100.00
25430;BME280;13360;48.152;-1.788;2023-07-20T04:46:29;101845.19;;;17.26;100.00
25430;BME280;13360;48.152;-1.788;2023-07-20T04:48:54;101853.88;;;17.24;100.00
25430;BME280;13360;48.152;-1.788;2023-07-20T04:51:20;101875.38;;;17.24;100.00
25430;BME280;13360;48.152;-1.788;2023-07-20T04:53:48;101872.59;;;17.24;100.00
25430;BME280;13360;48.152;-1.788;2023-07-20T04:56:13;101896.59;;;17.25;100.00
25430;BME280;13360;48.152;-1.788;2023-07-20T04:58:39;101908.25;;;17.27;100.00
25430;BME280;13360;48.152;-1.788;2023-07-20T05:01:04;101920.25;;;17.27;100.00
25430;BME280;13360;48.152;-1.788;2023-07-20T05:03:29;101923.88;;;17.28;100.00
25430;BME280;13360;48.152;-1.788;2023-07-20T05:05:54;101934.75;;;17.29;100.00
25430;BME280;13360;48.152;-1.788;2023-07-20T05:08:20;101952.34;;;17.30;100.00
25430;BME280;13360;48.152;-1.788;2023-07-20T05:10:47;101958.75;;;17.30;100.00
25430;BME280;13360;48.152;-1.788;2023-07-20T05:13:12;101985.84;;;17.30;100.00
25430;BME280;13360;48.152;-1.788;2023-07-20T05:15:37;102004.25;;;17.31;100.00
25430;BME280;13360;48.152;-1.788;2023-07-20T05:18:03;102017.91;;;17.32;100.00
25430;BME280;13360;48.152;-1.788;2023-07-20T05:20:28;102032.38;;;17.34;100.00
25430;BME280;13360;48.152;-1.788;2023-07-20T05:22:54;102055.53;;;17.35;100.00
25430;BME280;13360;48.152;-1.788;2023-07-20T05:25:19;102058.84;;;17.37;100.00
25430;BME280;13360;48.152;-1.788;2023-07-20T05:27:47;102066.09;;;17.38;100.00
25430;BME280;13360;48.152;-1.788;2023-07-20T05:30:12;102072.81;;;17.37;100.00
25430;BME280;13360;48.152;-1.788;2023-07-20T05:32:37;102090.69;;;17.36;100.00
25430;BME280;13360;48.152;-1.788;2023-07-20T05:35:03;102100.22;;;17.35;100.00
25430;BME280;13360;48.152;-1.788;2023-07-20T05:37:28;102111.09;;;17.36;100.00
25430;BME280;13360;48.152;-1.788;2023-07-20T05:39:53;102118.13;;;17.34;100.00
25430;BME280;13360;48.152;-1.788;2023-07-20T05:42:19;102110.88;;;17.33;100.00
25430;BME280;13360;48.152;-1.788;2023-07-20T05:44:44;102120.41;;;17.32;100.00
25430;BME280;13360;48.152;-1.788;2023-07-20T05:47:09;102122.34;;;17.31;100.00
25430;BME280;13360;48.152;-1.788;2023-07-20T05:49:35;102127.13;;;17.31;100.00
25430;BME280;13360;48.152;-1.788;2023-07-20T05:52:00;102149.97;;;17.33;100.00
25430;BME280;13360;48.152;-1.788;2023-07-20T05:54:26;102166.41;;;17.34;100.00
25430;BME280;13360;48.152;-1.788;2023-07-20T05:56:51;102200.75;;;17.35;100.00
25430;BME280;13360;48.152;-1.788;2023-07-20T05:59:16;102259.41;;;17.35;100.00
25430;BME280;13360;48.152;-1.788;2023-07-20T06:01:43;102340.94;;;17.37;100.00
25430;BME280;13360;48.152;-1.788;2023-07-20T06:04:08;102413.53;;;17.37;100.00
25430;BME280;13360;48.152;-1.788;2023-07-20T06:06:33;102477.25;;;17.35;100.00
25430;BME280;13360;48.152;-1.788;2023-07-20T06:08:59;102540.66;;;17.34;100.00
25430;BME280;13360;48.152;-1.788;2023-07-20T06:11:28;102568.00;;;17.37;100.00
25430;BME280;13360;48.152;-1.788;2023-07-20T06:13:53;102584.69;;;17.43;100.00
25430;BME280;13360;48.152;-1.788;2023-07-20T06:16:18;102608.09;;;17.47;100.00
25430;BME280;13360;48.152;-1.788;2023-07-20T06:18:43;102626.25;;;17.49;100.00
25430;BME280;13360;48.152;-1.788;2023-07-20T06:21:10;102639.63;;;17.52;100.00
25430;BME280;13360;48.152;-1.788;2023-07-20T06:23:35;102640.16;;;17.54;100.00
25430;BME280;13360;48.152;-1.788;2023-07-20T06:26:01;102651.53;;;17.58;100.00
25430;BME280;13360;48.152;-1.788;2023-07-20T06:28:26;102655.69;;;17.60;100.00
25430;BME280;13360;48.152;-1.788;2023-07-20T06:30:51;102675.78;;;17.62;100.00
25430;BME280;13360;48.152;-1.788;2023-07-20T06:33:16;102683.06;;;17.63;100.00
25430;BME280;13360;48.152;-1.788;2023-07-20T06:35:42;102702.00;;;17.66;100.00
25430;BME280;13360;48.152;-1.788;2023-07-20T06:38:11;102699.22;;;17.66;100.00
25430;BME280;13360;48.152;-1.788;2023-07-20T06:40:36;102712.63;;;17.70;100.00
25430;BME280;13360;48.152;-1.788;2023-07-20T06:43:01;102718.47;;;17.73;100.00
25430;BME280;13360;48.152;-1.788;2023-07-20T06:45:27;102811.19;;;17.80;100.00
25430;BME280;13360;48.152;-1.788;2023-07-20T06:47:52;102824.25;;;17.85;100.00
25430;BME280;13360;48.152;-1.788;2023-07-20T06:50:17;102827.88;;;17.85;100.00
25430;BME280;13360;48.152;-1.788;2023-07-20T06:52:42;102824.25;;;17.85;100.00
25430;BME280;13360;48.152;-1.788;2023-07-20T06:55:08;102818.66;;;17.85;100.00
25430;BME280;13360;48.152;-1.788;2023-07-20T06:57:33;102828.41;;;17.87;100.00
25430;BME280;13360;48.152;-1.788;2023-07-20T06:59:58;102839.00;;;17.90;100.00
25430;BME280;13360;48.152;-1.788;2023-07-20T07:02:24;102835.66;;;17.93;100.00
25430;BME280;13360;48.152;-1.788;2023-07-20T07:04:49;102836.19;;;17.95;100.00
25430;BME280;13360;48.152;-1.788;2023-07-20T07:07:14;102841.19;;;17.98;100.00
25430;BME280;13360;48.152;-1.788;2023-07-20T07:09:39;102847.00;;;18.02;100.00
25430;BME280;13360;48.152;-1.788;2023-07-20T07:12:05;102857.06;;;18.03;100.00
25430;BME280;13360;48.152;-1.788;2023-07-20T07:14:30;102869.31;;;18.07;100.00
25430;BME280;13360;48.152;-1.788;2023-07-20T07:16:55;102881.88;;;18.10;100.00
25430;BME280;13360;48.152;-1.788;2023-07-20T07:19:20;102886.91;;;18.13;100.00
25430;BME280;13360;48.152;-1.788;2023-07-20T07:21:46;102896.06;;;18.18;100.00
25430;BME280;13360;48.152;-1.788;2023-07-20T07:24:11;102903.84;;;18.21;100.00
25430;BME280;13360;48.152;-1.788;2023-07-20T07:26:37;102898.78;;;18.23;100.00
25430;BME280;13360;48.152;-1.788;2023-07-20T07:29:02;102905.22;;;18.24;100.00
25430;BME280;13360;48.152;-1.788;2023-07-20T07:31:33;102906.34;;;18.23;100.00
25430;BME280;13360;48.152;-1.788;2023-07-20T07:33:58;102901.88;;;18.22;100.00
25430;BME280;13360;48.152;-1.788;2023-07-20T07:36:24;102917.00;;;18.21;100.00
25430;BME280;13360;48.152;-1.788;2023-07-20T07:38:50;102922.28;;;18.22;100.00
25430;BME280;13360;48.152;-1.788;2023-07-20T07:41:15;102923.97;;;18.23;100.00
25430;BME280;13360;48.152;-1.788;2023-07-20T07:43:40;102931.75;;;18.26;100.00
25430;BME280;13360;48.152;-1.788;2023-07-20T07:46:05;102938.41;;;18.31;100.00
25430;BME280;13360;48.152;-1.788;2023-07-20T07:48:31;102940.91;;;18.32;100.00
25430;BME280;13360;48.152;-1.788;2023-07-20T07:50:56;102932.25;;;18.34;100.00
25430;BME280;13360;48.152;-1.788;2023-07-20T07:53:21;102935.59;;;18.36;100.00
25430;BME280;13360;48.152;-1.788;2023-07-20T07:55:50;102937.25;;;18.37;100.00
25430;BME280;13360;48.152;-1.788;2023-07-20T07:58:15;102941.72;;;18.38;100.00
25430;BME280;13360;48.152;-1.788;2023-07-20T08:00:40;102928.28;;;18.40;100.00
25430;BME280;13360;48.152;-1.788;2023-07-20T08:03:06;102919.88;;;18.40;100.00
25430;BME280;13360;48.152;-1.788;2023-07-20T08:05:31;102926.31;;;18.40;100.00
25430;BME280;13360;48.152;-1.788;2023-07-20T08:07:56;102928.19;;;18.45;100.00
25430;BME280;13360;48.152;-1.788;2023-07-20T08:10:21;102932.59;;;18.51;100.00
25430;BME280;13360;48.152;-1.788;2023-07-20T08:12:47;102937.03;;;18.57;100.00
25430;BME280;13360;48.152;-1.788;2023-07-20T08:15:12;102932.78;;;18.59;100.00
25430;BME280;13360;48.152;-1.788;2023-07-20T08:17:39;102940.84;;;18.66;100.00
25430;BME280;13360;48.152;-1.788;2023-07-20T08:20:04;102931.50;;;18.76;100.00
25430;BME280;13360;48.152;-1.788;2023-07-20T08:22:31;102953.47;;;18.87;100.00
25430;BME280;13360;48.152;-1.788;2023-07-20T08:24:56;102952.03;;;18.90;100.00
25430;BME280;13360;48.152;-1.788;2023-07-20T08:27:21;102943.59;;;18.95;100.00
25430;BME280;13360;48.152;-1.788;2023-07-20T08:29:46;102908.84;;;18.96;100.00
25430;BME280;13360;48.152;-1.788;2023-07-20T08:32:12;102883.03;;;18.99;100.00
25430;BME280;13360;48.152;-1.788;2023-07-20T08:34:39;102861.16;;;19.01;100.00
25430;BME280;13360;48.152;-1.788;2023-07-20T08:37:04;102833.75;;;18.98;100.00
25430;BME280;13360;48.152;-1.788;2023-07-20T08:39:30;102821.84;;;19.06;100.00
25430;BME280;13360;48.152;-1.788;2023-07-20T08:41:55;102796.44;;;19.03;100.00
25430;BME280;13360;48.152;-1.788;2023-07-20T08:44:21;102756.47;;;18.97;100.00
25430;BME280;13360;48.152;-1.788;2023-07-20T08:46:48;102749.75;;;18.98;100.00
25430;BME280;13360;48.152;-1.788;2023-07-20T08:49:13;102754.94;;;19.05;100.00
25430;BME280;13360;48.152;-1.788;2023-07-20T08:51:40;102745.78;;;19.18;100.00
25430;BME280;13360;48.152;-1.788;2023-07-20T08:54:06;102732.09;;;19.30;100.00
25430;BME280;13360;48.152;-1.788;2023-07-20T08:56:33;102701.16;;;19.35;100.00
25430;BME280;13360;48.152;-1.788;2023-07-20T08:58:58;102677.41;;;19.46;100.00
25430;BME280;13360;48.152;-1.788;2023-07-20T09:01:24;102622.53;;;19.45;100.00
25430;BME280;13360;48.152;-1.788;2023-07-20T09:03:50;102609.22;;;19.51;100.00
25430;BME280;13360;48.152;-1.788;2023-07-20T09:06:15;102585.56;;;19.57;100.00
25430;BME280;13360;48.152;-1.788;2023-07-20T09:08:41;102583.72;;;19.66;100.00
25430;BME280;13360;48.152;-1.788;2023-07-20T09:11:07;102553.69;;;19.67;100.00
25430;BME280;13360;48.152;-1.788;2023-07-20T09:13:33;102500.38;;;19.58;100.00
25430;BME280;13360;48.152;-1.788;2023-07-20T09:15:58;102446.69;;;19.51;100.00
25430;BME280;13360;48.152;-1.788;2023-07-20T09:18:24;102428.19;;;19.50;100.00
25430;BME280;13360;48.152;-1.788;2023-07-20T09:20:50;102425.72;;;19.48;100.00
25430;BME280;13360;48.152;-1.788;2023-07-20T09:23:15;102425.31;;;19.55;100.00
25430;BME280;13360;48.152;-1.788;2023-07-20T09:25:41;102443.50;;;19.80;100.00
25430;BME280;13360;48.152;-1.788;2023-07-20T09:28:06;102486.84;;;20.41;100.00
25430;BME280;13360;48.152;-1.788;2023-07-20T09:30:31;102431.22;;;21.00;100.00
25430;BME280;13360;48.152;-1.788;2023-07-20T09:32:58;102292.94;;;21.38;100.00
25430;BME280;13360;48.152;-1.788;2023-07-20T09:35:23;102138.38;;;21.38;100.00
25430;BME280;13360;48.152;-1.788;2023-07-20T09:37:50;102063.88;;;21.14;100.00
25430;BME280;13360;48.152;-1.788;2023-07-20T09:40:19;102021.63;;;21.02;100.00
25430;BME280;13360;48.152;-1.788;2023-07-20T09:42:45;101970.50;;;21.17;100.00
25430;BME280;13360;48.152;-1.788;2023-07-20T09:45:10;101944.25;;;21.13;100.00
25430;BME280;13360;48.152;-1.788;2023-07-20T09:47:36;101941.50;;;21.34;100.00
25430;BME280;13360;48.152;-1.788;2023-07-20T09:50:06;101894.78;;;21.29;100.00
25430;BME280;13360;48.152;-1.788;2023-07-20T09:52:37;101845.84;;;21.01;100.00
25430;BME280;13360;48.152;-1.788;2023-07-20T09:55:02;101860.63;;;20.60;100.00
25430;BME280;13360;48.152;-1.788;2023-07-20T09:57:28;101868.25;;;20.51;100.00
25430;BME280;13360;48.152;-1.788;2023-07-20T09:59:54;101847.03;;;20.41;100.00
25430;BME280;13360;48.152;-1.788;2023-07-20T10:02:20;101831.81;;;20.33;100.00
25430;BME280;13360;48.152;-1.788;2023-07-20T10:04:46;101836.13;;;20.31;100.00
25430;BME280;13360;48.152;-1.788;2023-07-20T10:07:12;101827.91;;;20.26;100.00
25430;BME280;13360;48.152;-1.788;2023-07-20T10:09:39;101811.66;;;20.40;100.00
25430;BME280;13360;48.152;-1.788;2023-07-20T10:12:05;101822.22;;;21.02;100.00
25430;BME280;13360;48.152;-1.788;2023-07-20T10:14:32;101749.59;;;21.67;100.00
25430;BME280;13360;48.152;-1.788;2023-07-20T10:17:01;101692.97;;;22.13;100.00
25430;BME280;13360;48.152;-1.788;2023-07-20T10:22:07;101615.38;;;22.80;100.00
25430;BME280;13360;48.152;-1.788;2023-07-20T10:24:33;101550.97;;;23.38;100.00
25430;BME280;13360;48.152;-1.788;2023-07-20T10:27:00;101475.19;;;22.74;100.00
25430;BME280;13360;48.152;-1.788;2023-07-20T10:29:26;101460.47;;;22.21;100.00
25430;BME280;13360;48.152;-1.788;2023-07-20T10:31:52;101441.00;;;21.88;100.00
25430;BME280;13360;48.152;-1.788;2023-07-20T10:34:18;101430.06;;;21.58;100.00
25430;BME280;13360;48.152;-1.788;2023-07-20T10:36:44;101430.94;;;21.35;100.00
25430;BME280;13360;48.152;-1.788;2023-07-20T10:39:26;101440.13;;;21.23;100.00
25430;BME280;13360;48.152;-1.788;2023-07-20T10:44:30;101477.03;;;21.09;100.00
25430;BME280;13360;48.152;-1.788;2023-07-20T10:46:59;101478.66;;;21.22;100.00
25430;BME280;13360;48.152;-1.788;2023-07-20T10:49:25;101518.38;;;21.33;100.00
25430;BME280;13360;48.152;-1.788;2023-07-20T10:52:13;101507.03;;;21.29;100.00
25430;BME280;13360;48.152;-1.788;2023-07-20T10:54:46;101491.53;;;21.23;100.00
25430;BME280;13360;48.152;-1.788;2023-07-20T10:57:28;101471.38;;;21.21;100.00
25430;BME280;13360;48.152;-1.788;2023-07-20T10:59:53;101482.63;;;21.21;100.00
25430;BME280;13360;48.152;-1.788;2023-07-20T11:02:41;101465.13;;;21.24;100.00
25430;BME280;13360;48.152;-1.788;2023-07-20T11:05:06;101473.56;;;21.24;100.00
25430;BME280;13360;48.152;-1.788;2023-07-20T11:07:38;101470.38;;;21.26;100.00
25430;BME280;13360;48.152;-1.788;2023-07-20T11:10:13;101464.94;;;21.21;100.00
25430;BME280;13360;48.152;-1.788;2023-07-20T11:12:40;101458.69;;;21.24;100.00
25430;BME280;13360;48.152;-1.788;2023-07-20T11:15:05;101443.13;;;21.26;100.00
25430;BME280;13360;48.152;-1.788;2023-07-20T11:17:31;101378.94;;;21.16;100.00
25430;BME280;13360;48.152;-1.788;2023-07-20T11:19:58;101342.78;;;21.02;100.00
25430;BME280;13360;48.152;-1.788;2023-07-20T11:22:25;101332.88;;;21.05;100.00
25430;BME280;13360;48.152;-1.788;2023-07-20T11:24:54;101352.47;;;21.17;100.00
25430;BME280;13360;48.152;-1.788;2023-07-20T11:27:20;101352.84;;;21.28;100.00
25430;BME280;13360;48.152;-1.788;2023-07-20T11:29:47;101310.44;;;21.21;100.00
25430;BME280;13360;48.152;-1.788;2023-07-20T11:32:12;101310.81;;;21.19;100.00
25430;BME280;13360;48.152;-1.788;2023-07-20T11:34:46;101308.50;;;21.09;100.00
25430;BME280;13360;48.152;-1.788;2023-07-20T11:37:11;101317.41;;;21.11;100.00
25430;BME280;13360;48.152;-1.788;2023-07-20T11:39:37;101300.53;;;21.11;100.00
25430;BME280;13360;48.152;-1.788;2023-07-20T11:42:04;101312.69;;;21.15;100.00
25430;BME280;13360;48.152;-1.788;2023-07-20T11:44:29;101312.44;;;21.20;100.00
25430;BME280;13360;48.152;-1.788;2023-07-20T11:47:03;101320.69;;;21.25;100.00
25430;BME280;13360;48.152;-1.788;2023-07-20T11:49:29;101326.41;;;21.29;100.00
25430;BME280;13360;48.152;-1.788;2023-07-20T11:51:55;101335.38;;;21.35;100.00
25430;BME280;13360;48.152;-1.788;2023-07-20T11:54:20;101350.81;;;21.41;100.00
25430;BME280;13360;48.152;-1.788;2023-07-20T11:56:46;101342.16;;;21.46;100.00
25430;BME280;13360;48.152;-1.788;2023-07-20T11:59:11;101333.25;;;21.44;100.00
25430;BME280;13360;48.152;-1.788;2023-07-20T12:01:36;101358.22;;;21.45;100.00
25430;BME280;13360;48.152;-1.788;2023-07-20T12:04:05;101316.50;;;21.47;100.00
25430;BME280;13360;48.152;-1.788;2023-07-20T12:06:32;101313.81;;;21.51;100.00
25430;BME280;13360;48.152;-1.788;2023-07-20T12:08:58;101323.50;;;21.53;100.00
25430;BME280;13360;48.152;-1.788;2023-07-20T12:11:33;101308.75;;;21.56;100.00
25430;BME280;13360;48.152;-1.788;2023-07-20T12:13:58;101323.94;;;21.68;100.00
25430;BME280;13360;48.152;-1.788;2023-07-20T12:16:26;101321.66;;;21.73;100.00
25430;BME280;13360;48.152;-1.788;2023-07-20T12:18:51;101279.41;;;21.70;100.00
25430;BME280;13360;48.152;-1.788;2023-07-20T12:21:24;101274.97;;;21.69;100.00
25430;BME280;13360;48.152;-1.788;2023-07-20T12:23:49;101271.78;;;21.70;100.00
25430;BME280;13360;48.152;-1.788;2023-07-20T12:26:14;101261.81;;;21.73;100.00
25430;BME280;13360;48.152;-1.788;2023-07-20T12:28:40;101286.03;;;21.77;100.00
25430;BME280;13360;48.152;-1.788;2023-07-20T12:31:06;101284.84;;;21.78;100.00
25430;BME280;13360;48.152;-1.788;2023-07-20T12:33:32;101269.16;;;21.77;100.00
25430;BME280;13360;48.152;-1.788;2023-07-20T12:35:57;101282.50;;;21.80;100.00
25430;BME280;13360;48.152;-1.788;2023-07-20T12:38:24;101276.50;;;21.82;100.00
25430;BME280;13360;48.152;-1.788;2023-07-20T12:40:49;101258.00;;;21.81;100.00